createdAt,value
2022-10-11T00:01:44.203Z,73.40
2022-10-11T00:04:10.934Z,73.60
2022-10-11T00:06:38.368Z,73.60
2022-10-11T00:09:05.669Z,73.70
2022-10-11T00:11:32.548Z,73.70
2022-10-11T00:13:59.248Z,73.90
2022-10-11T00:16:25.931Z,74.00
2022-10-11T00:18:52.697Z,74.10
2022-10-11T00:21:21.074Z,74.00
2022-10-11T00:23:48.123Z,74.10
2022-10-11T00:26:14.878Z,74.90
2022-10-11T00:28:42.071Z,74.20
2022-10-11T00:31:13.629Z,74.30
2022-10-11T00:33:40.385Z,74.20
2022-10-11T00:36:08.526Z,74.30
2022-10-11T00:38:35.597Z,74.30
2022-10-11T00:41:02.368Z,74.40
2022-10-11T00:43:30.024Z,74.40
2022-10-11T00:45:56.680Z,74.70
2022-10-11T00:48:33.013Z,74.70
2022-10-11T00:51:01.647Z,74.70
2022-10-11T00:53:28.986Z,74.70
2022-10-11T00:55:59.869Z,74.70
2022-10-11T00:58:26.579Z,74.60
2022-10-11T01:00:54.135Z,74.80
2022-10-11T01:03:21.180Z,74.80
2022-10-11T01:05:47.868Z,74.80
2022-10-11T01:08:14.554Z,74.80
2022-10-11T01:10:41.256Z,74.80
2022-10-11T01:13:17.348Z,74.90
2022-10-11T01:16:08.627Z,74.90
2022-10-11T01:18:57.844Z,74.90
2022-10-11T01:21:47.013Z,75.70
2022-10-11T01:24:19.465Z,74.90
2022-10-11T01:27:14.089Z,75.00
2022-10-11T01:30:04.407Z,75.10
2022-10-11T01:32:50.931Z,75.10
2022-10-11T01:35:25.704Z,75.30
2022-10-11T01:38:13.621Z,75.20
2022-10-11T01:40:47.171Z,75.30
2022-10-11T01:43:14.787Z,75.30
2022-10-11T01:45:42.022Z,75.30
2022-10-11T01:48:10.350Z,75.30
2022-10-11T01:50:48.920Z,75.40
2022-10-11T01:53:47.239Z,75.40
2022-10-11T01:56:22.942Z,75.40
2022-10-11T01:59:19.708Z,75.40
2022-10-11T02:01:58.481Z,75.50
2022-10-11T02:04:48.779Z,75.60
2022-10-11T02:07:27.443Z,75.50
2022-10-11T02:10:09.173Z,75.60
2022-10-11T02:12:42.016Z,75.80
2022-10-11T02:15:09.460Z,76.00
2022-10-11T02:17:40.491Z,76.00
2022-10-11T02:20:09.880Z,76.20
2022-10-11T02:22:38.478Z,76.30
2022-10-11T02:25:07.398Z,76.20
2022-10-11T02:27:34.295Z,76.30
2022-10-11T02:30:02.572Z,76.30
2022-10-11T02:32:29.233Z,76.10
2022-10-11T02:34:57.400Z,76.30
2022-10-11T02:37:30.288Z,76.40
2022-10-11T02:40:17.468Z,76.60
2022-10-11T02:42:46.062Z,76.60
2022-10-11T02:45:24.447Z,76.60
2022-10-11T02:47:51.273Z,76.50
2022-10-11T02:50:17.951Z,76.60
2022-10-11T02:52:44.665Z,76.70
2022-10-11T02:55:11.844Z,76.70
2022-10-11T02:57:38.527Z,76.80
2022-10-11T03:00:05.859Z,76.80
2022-10-11T03:02:32.616Z,76.80
2022-10-11T03:04:59.469Z,76.80
2022-10-11T03:07:26.204Z,76.90
2022-10-11T03:09:52.987Z,77.00
2022-10-11T03:12:19.664Z,77.00
2022-10-11T03:14:46.528Z,77.00
2022-10-11T03:17:35.064Z,77.00
2022-10-11T03:20:00.053Z,77.00
2022-10-11T03:22:26.707Z,77.00
2022-10-11T03:24:53.386Z,77.00
2022-10-11T03:27:20.099Z,77.00
2022-10-11T03:29:46.785Z,77.00
2022-10-11T03:32:13.478Z,77.10
2022-10-11T03:34:40.196Z,77.10
2022-10-11T03:37:06.871Z,76.90
2022-10-11T03:39:33.615Z,76.80
2022-10-11T03:42:00.506Z,76.80
2022-10-11T03:44:27.325Z,77.10
2022-10-11T03:46:54.106Z,77.30
2022-10-11T03:49:20.829Z,77.00
2022-10-11T03:51:47.509Z,77.30
2022-10-11T03:54:14.289Z,77.50
2022-10-11T03:56:41.006Z,77.60
2022-10-11T03:59:07.721Z,77.60
2022-10-11T04:01:37.957Z,77.40
2022-10-11T04:04:05.271Z,77.50
2022-10-11T04:06:32.063Z,77.50
2022-10-11T04:08:58.835Z,77.50
2022-10-11T04:11:25.551Z,77.40
2022-10-11T04:13:52.265Z,77.30
2022-10-11T04:16:18.926Z,77.20
2022-10-11T04:18:45.655Z,77.20
2022-10-11T04:21:12.371Z,77.20
2022-10-11T04:23:39.068Z,77.30
2022-10-11T04:26:07.512Z,78.00
2022-10-11T04:28:35.114Z,77.30
2022-10-11T04:31:04.143Z,77.10
2022-10-11T04:33:31.133Z,77.10
2022-10-11T04:35:57.837Z,77.30
2022-10-11T04:38:24.692Z,77.30
2022-10-11T04:40:51.569Z,77.30
2022-10-11T04:43:18.981Z,77.20
2022-10-11T04:45:45.711Z,77.20
2022-10-11T04:48:12.529Z,77.30
2022-10-11T04:50:39.215Z,77.30
2022-10-11T04:53:05.892Z,77.40
2022-10-11T04:55:33.123Z,77.40
2022-10-11T04:57:59.888Z,77.40
2022-10-11T05:00:27.455Z,77.40
2022-10-11T05:02:54.507Z,77.50
2022-10-11T05:05:21.235Z,77.60
2022-10-11T05:07:47.960Z,77.80
2022-10-11T05:10:14.994Z,77.90
2022-10-11T05:12:41.741Z,78.00
2022-10-11T05:15:09.274Z,78.00
2022-10-11T05:17:36.160Z,77.90
2022-10-11T05:20:02.871Z,78.00
2022-10-11T05:22:29.532Z,78.20
2022-10-11T05:24:56.237Z,78.00
2022-10-11T05:27:22.929Z,78.00
2022-10-11T05:29:49.648Z,78.00
2022-10-11T05:32:16.397Z,78.10
2022-10-11T05:34:43.084Z,78.10
2022-10-11T05:37:09.779Z,78.10
2022-10-11T05:39:36.506Z,78.20
2022-10-11T05:42:07.659Z,78.40
2022-10-11T05:44:36.397Z,78.20
2022-10-11T05:47:03.201Z,78.40
2022-10-11T05:49:29.884Z,78.50
2022-10-11T05:51:56.932Z,78.70
2022-10-11T05:54:23.666Z,78.70
2022-10-11T05:56:50.381Z,78.50
2022-10-11T05:59:17.114Z,78.70
2022-10-11T06:01:43.922Z,78.70
2022-10-11T06:04:11.786Z,78.70
2022-10-11T06:06:38.486Z,79.50
2022-10-11T06:09:05.174Z,78.70
2022-10-11T06:11:31.897Z,78.90
2022-10-11T06:13:58.833Z,79.00
2022-10-11T06:16:25.670Z,79.10
2022-10-11T06:18:56.308Z,79.90
2022-10-11T06:21:23.431Z,79.10
2022-10-11T06:23:58.248Z,79.20
2022-10-11T06:26:27.858Z,79.10
2022-10-11T06:28:54.753Z,79.00
2022-10-11T06:31:21.602Z,79.10
2022-10-11T06:33:48.333Z,79.20
2022-10-11T06:36:15.331Z,79.10
2022-10-11T06:38:44.935Z,78.90
2022-10-11T06:41:23.416Z,78.80
2022-10-11T06:44:05.385Z,79.00
2022-10-11T06:46:33.140Z,78.80
2022-10-11T06:48:59.814Z,79.10
2022-10-11T06:51:27.205Z,79.10
2022-10-11T06:53:58.240Z,78.80
2022-10-11T06:56:26.092Z,79.00
2022-10-11T06:58:53.785Z,78.70
2022-10-11T07:01:21.568Z,78.70
2022-10-11T07:03:48.466Z,78.80
2022-10-11T07:06:16.916Z,78.70
2022-10-11T07:08:43.730Z,78.70
2022-10-11T07:11:11.852Z,78.80
2022-10-11T07:13:38.690Z,78.70
2022-10-11T07:16:07.741Z,78.40
2022-10-11T07:18:35.116Z,78.00
2022-10-11T07:21:06.033Z,78.10
2022-10-11T07:23:32.874Z,78.00
2022-10-11T07:25:59.605Z,77.70
2022-10-11T07:28:27.005Z,77.90
2022-10-11T07:30:53.726Z,78.00
2022-10-11T07:33:20.441Z,78.10
2022-10-11T07:35:48.559Z,77.80
2022-10-11T07:38:15.574Z,78.00
2022-10-11T07:40:45.033Z,78.00
2022-10-11T07:43:12.547Z,78.10
2022-10-11T07:45:42.694Z,78.10
2022-10-11T07:48:09.539Z,78.10
2022-10-11T07:50:36.247Z,78.00
2022-10-11T07:53:03.328Z,78.10
2022-10-11T07:55:31.632Z,78.00
2022-10-11T07:57:58.443Z,78.00
2022-10-11T08:00:25.195Z,78.00
2022-10-11T08:02:51.877Z,78.10
2022-10-11T08:05:18.611Z,78.30
2022-10-11T08:07:45.388Z,78.10
2022-10-11T08:10:12.210Z,78.10
2022-10-11T08:12:38.969Z,78.90
2022-10-11T08:15:06.196Z,78.40
2022-10-11T08:17:32.866Z,78.40
2022-10-11T08:19:59.570Z,78.50
2022-10-11T08:22:26.486Z,78.70
2022-10-11T08:24:53.745Z,79.50
2022-10-11T08:27:20.489Z,78.80
2022-10-11T08:29:47.265Z,78.90
2022-10-11T08:32:13.975Z,78.90
2022-10-11T08:34:40.932Z,79.00
2022-10-11T08:37:07.855Z,79.10
2022-10-11T08:39:34.904Z,79.10
2022-10-11T08:42:11.186Z,78.80
2022-10-11T08:45:08.948Z,78.90
2022-10-11T08:47:45.245Z,78.90
2022-10-11T08:50:22.573Z,78.90
2022-10-11T08:52:49.353Z,79.00
2022-10-11T08:55:17.858Z,78.80
2022-10-11T08:57:45.017Z,78.80
2022-10-11T09:00:15.508Z,78.30
2022-10-11T09:03:08.169Z,78.20
2022-10-11T09:05:36.306Z,78.20
2022-10-11T09:08:09.430Z,78.20
2022-10-11T09:10:45.887Z,78.20
2022-10-11T09:13:57.686Z,77.70
2022-10-11T09:16:44.065Z,77.40
2022-10-11T09:19:34.009Z,77.30
2022-10-11T09:22:09.771Z,76.90
2022-10-11T09:25:05.733Z,76.90
2022-10-11T09:27:57.712Z,77.00
2022-10-11T09:30:23.147Z,77.10
2022-10-11T09:33:08.242Z,77.10
2022-10-11T09:35:39.105Z,77.10
2022-10-11T09:38:25.079Z,77.10
2022-10-11T09:41:17.741Z,77.10
2022-10-11T09:43:50.870Z,77.00
2022-10-11T09:46:30.829Z,77.10
2022-10-11T09:48:57.628Z,77.20
2022-10-11T09:51:25.761Z,77.10
2022-10-11T09:54:00.239Z,77.10
2022-10-11T09:56:28.623Z,76.80
2022-10-11T09:59:10.612Z,76.80
2022-10-11T10:01:37.478Z,76.70
2022-10-11T10:04:07.008Z,76.50
2022-10-11T10:06:33.902Z,76.40
2022-10-11T10:09:19.498Z,76.20
2022-10-11T10:11:46.245Z,76.10
2022-10-11T10:14:21.597Z,76.10
2022-10-11T10:16:48.363Z,76.10
2022-10-11T10:19:25.274Z,76.00
2022-10-11T10:21:53.669Z,75.50
2022-10-11T10:24:36.387Z,75.20
2022-10-11T10:27:25.330Z,75.60
2022-10-11T10:30:13.282Z,75.00
2022-10-11T10:32:56.009Z,74.90
2022-10-11T10:35:28.642Z,74.90
2022-10-11T10:38:14.137Z,75.00
2022-10-11T10:40:52.143Z,75.00
2022-10-11T10:43:20.701Z,75.00
2022-10-11T10:46:00.102Z,74.80
2022-10-11T10:49:23.542Z,74.90
2022-10-11T10:52:05.244Z,75.00
2022-10-11T10:54:56.575Z,75.20
2022-10-11T10:57:24.076Z,75.20
2022-10-11T11:00:20.432Z,75.20
2022-10-11T11:03:03.463Z,75.10
2022-10-11T11:05:37.034Z,75.10
2022-10-11T11:08:22.249Z,75.10
2022-10-11T11:11:11.492Z,74.90
2022-10-11T11:13:52.577Z,75.10
2022-10-11T11:16:36.163Z,75.50
2022-10-11T11:19:21.784Z,74.80
2022-10-11T11:21:52.956Z,74.80
2022-10-11T11:24:44.084Z,74.80
2022-10-11T11:27:46.792Z,74.90
2022-10-11T11:30:20.504Z,74.90
2022-10-11T11:32:55.782Z,75.00
2022-10-11T11:35:52.801Z,74.90
2022-10-11T11:38:40.774Z,74.70
2022-10-11T11:41:36.225Z,74.70
2022-10-11T11:44:03.973Z,74.30
2022-10-11T11:46:35.961Z,74.40
2022-10-11T11:49:08.606Z,74.10
2022-10-11T11:51:41.776Z,74.00
2022-10-11T11:54:36.548Z,74.10
2022-10-11T11:57:14.154Z,73.70
2022-10-11T11:59:57.621Z,73.90
2022-10-11T12:02:33.526Z,73.30
2022-10-11T12:05:00.634Z,72.80
2022-10-11T12:07:27.952Z,72.90
2022-10-11T12:10:14.506Z,73.10
2022-10-11T12:12:41.195Z,73.10
2022-10-11T12:15:26.409Z,73.10
2022-10-11T12:17:56.068Z,73.00
2022-10-11T12:20:32.308Z,73.00
2022-10-11T12:23:03.752Z,72.70
2022-10-11T12:25:37.537Z,72.60
2022-10-11T12:28:49.692Z,72.40
2022-10-11T12:31:24.815Z,72.30
2022-10-11T12:33:53.069Z,71.80
2022-10-11T12:36:47.179Z,72.00
2022-10-11T12:39:19.873Z,72.00
2022-10-11T12:41:49.628Z,72.20
2022-10-11T12:44:19.131Z,72.10
2022-10-11T12:46:53.522Z,72.20
2022-10-11T12:49:31.122Z,72.00
2022-10-11T12:52:20.468Z,72.20
2022-10-11T12:55:02.509Z,71.90
2022-10-11T12:57:29.171Z,72.10
2022-10-11T12:59:55.865Z,71.60
2022-10-11T13:02:42.929Z,71.60
2022-10-11T13:05:21.574Z,71.40
2022-10-11T13:07:48.617Z,71.10
2022-10-11T13:10:23.064Z,71.00
2022-10-11T13:12:49.753Z,70.90
2022-10-11T13:15:18.494Z,70.60
2022-10-11T13:17:45.448Z,71.20
2022-10-11T13:20:23.899Z,70.90
2022-10-11T13:22:54.640Z,71.00
2022-10-11T13:25:26.884Z,70.90
2022-10-11T13:27:54.536Z,71.10
2022-10-11T13:30:26.834Z,71.10
2022-10-11T13:32:53.618Z,71.10
2022-10-11T13:35:26.658Z,71.20
2022-10-11T13:37:53.419Z,70.90
2022-10-11T13:40:20.725Z,70.70
2022-10-11T13:42:48.614Z,71.60
2022-10-11T13:45:18.618Z,70.90
2022-10-11T13:47:45.352Z,70.90
2022-10-11T13:50:15.425Z,70.60
2022-10-11T13:52:59.956Z,70.50
2022-10-11T13:55:34.928Z,70.50
2022-10-11T13:58:03.847Z,70.70
2022-10-11T14:00:33.187Z,70.70
2022-10-11T14:03:00.988Z,70.80
2022-10-11T14:05:54.019Z,70.60
2022-10-11T14:08:41.869Z,69.80
2022-10-11T14:11:09.631Z,69.30
2022-10-11T14:13:40.142Z,68.60
2022-10-11T14:16:11.115Z,68.40
2022-10-11T14:18:48.885Z,67.90
2022-10-11T14:21:34.714Z,68.20
2022-10-11T14:24:02.608Z,67.90
2022-10-11T14:26:37.258Z,67.40
2022-10-11T14:29:24.483Z,67.10
2022-10-11T14:31:51.235Z,67.40
2022-10-11T14:34:20.080Z,67.50
2022-10-11T14:36:48.675Z,67.80
2022-10-11T14:39:17.633Z,67.80
2022-10-11T14:41:45.404Z,67.80
2022-10-11T14:44:12.386Z,67.50
2022-10-11T14:46:40.840Z,67.70
2022-10-11T14:49:27.873Z,67.40
2022-10-11T14:51:55.746Z,67.80
2022-10-11T14:54:23.518Z,67.40
2022-10-11T14:56:50.981Z,67.50
2022-10-11T14:59:19.380Z,67.40
2022-10-11T15:01:46.821Z,67.60
2022-10-11T15:04:13.696Z,67.60
2022-10-11T15:06:40.765Z,67.70
2022-10-11T15:09:07.552Z,67.60
2022-10-11T15:11:34.302Z,68.00
2022-10-11T15:14:01.022Z,67.70
2022-10-11T15:16:27.775Z,67.70
2022-10-11T15:18:54.489Z,67.60
2022-10-11T15:21:26.310Z,67.70
2022-10-11T15:23:53.764Z,67.80
2022-10-11T15:26:22.379Z,67.70
2022-10-11T15:28:49.295Z,67.70
2022-10-11T15:31:16.180Z,67.90
2022-10-11T15:33:42.990Z,68.00
2022-10-11T15:36:12.958Z,68.00
2022-10-11T15:38:39.952Z,67.90
2022-10-11T15:41:08.352Z,67.90
2022-10-11T15:43:35.092Z,67.90
2022-10-11T15:46:01.882Z,68.00
2022-10-11T15:48:29.036Z,67.90
2022-10-11T15:50:55.886Z,68.10
2022-10-11T15:53:28.649Z,68.20
2022-10-11T15:55:56.577Z,68.20
2022-10-11T15:58:31.717Z,68.20
2022-10-11T16:01:00.613Z,68.10
2022-10-11T16:03:29.205Z,68.10
2022-10-11T16:05:58.059Z,68.20
2022-10-11T16:08:27.921Z,68.30
2022-10-11T16:10:54.694Z,68.30
2022-10-11T16:13:21.440Z,68.50
2022-10-11T16:15:49.012Z,68.50
2022-10-11T16:18:16.641Z,68.50
2022-10-11T16:20:47.291Z,68.60
2022-10-11T16:23:14.167Z,68.80
2022-10-11T16:25:41.256Z,68.70
2022-10-11T16:28:08.523Z,68.90
2022-10-11T16:30:39.197Z,68.90
2022-10-11T16:33:05.870Z,69.10
2022-10-11T16:35:32.851Z,69.10
2022-10-11T16:38:00.307Z,69.10
2022-10-11T16:40:28.236Z,69.20
2022-10-11T16:42:54.895Z,68.80
2022-10-11T16:45:21.596Z,69.00
2022-10-11T16:47:48.315Z,69.10
2022-10-11T16:50:14.993Z,70.10
2022-10-11T16:52:41.738Z,69.20
2022-10-11T16:55:08.833Z,69.20
2022-10-11T16:57:37.703Z,69.40
2022-10-11T17:00:06.854Z,69.30
2022-10-11T17:02:33.611Z,69.20
2022-10-11T17:05:00.425Z,69.30
2022-10-11T17:07:27.289Z,69.30
2022-10-11T17:09:54.139Z,69.50
2022-10-11T17:12:22.102Z,70.50
2022-10-11T17:14:49.170Z,69.70
2022-10-11T17:17:16.285Z,69.80
2022-10-11T17:19:45.365Z,69.50
2022-10-11T17:22:13.197Z,69.20
2022-10-11T17:24:39.938Z,69.40
2022-10-11T17:27:06.871Z,69.50
2022-10-11T17:29:33.997Z,69.50
2022-10-11T17:32:00.777Z,69.50
2022-10-11T17:34:27.549Z,69.60
2022-10-11T17:36:54.257Z,69.60
2022-10-11T17:39:22.364Z,69.60
2022-10-11T17:41:49.097Z,69.70
2022-10-11T17:44:19.113Z,69.60
2022-10-11T17:46:46.417Z,69.60
2022-10-11T17:49:13.161Z,69.60
2022-10-11T17:51:40.169Z,69.50
2022-10-11T17:54:07.116Z,69.50
2022-10-11T17:56:38.065Z,69.10
2022-10-11T17:59:05.016Z,69.00
2022-10-11T18:01:31.890Z,69.00
2022-10-11T18:04:00.373Z,69.00
2022-10-11T18:06:28.943Z,69.10
2022-10-11T18:08:57.163Z,69.10
2022-10-11T18:11:24.032Z,69.10
2022-10-11T18:13:51.753Z,69.10
2022-10-11T18:16:20.115Z,68.80
2022-10-11T18:18:46.952Z,68.80
2022-10-11T18:21:13.747Z,68.60
2022-10-11T18:23:40.995Z,68.70
2022-10-11T18:26:12.314Z,68.70
2022-10-11T18:28:40.585Z,68.80
2022-10-11T18:31:13.620Z,68.90
2022-10-11T18:33:40.869Z,69.00
2022-10-11T18:36:08.389Z,69.00
2022-10-11T18:38:35.299Z,69.20
2022-10-11T18:41:06.935Z,69.20
2022-10-11T18:43:34.055Z,69.30
2022-10-11T18:46:08.558Z,69.10
2022-10-11T18:48:35.381Z,69.10
2022-10-11T18:51:09.782Z,69.00
2022-10-11T18:53:36.922Z,69.20
2022-10-11T18:56:05.067Z,69.30
2022-10-11T18:58:32.830Z,69.40
2022-10-11T19:01:18.049Z,69.50
2022-10-11T19:03:46.118Z,69.70
2022-10-11T19:06:17.629Z,69.40
2022-10-11T19:08:45.104Z,69.60
2022-10-11T19:11:12.973Z,70.30
2022-10-11T19:13:39.795Z,69.90
2022-10-11T19:16:13.964Z,70.00
2022-10-11T19:18:44.251Z,70.00
2022-10-11T19:21:12.417Z,70.10
2022-10-11T19:23:43.617Z,70.00
2022-10-11T19:26:15.536Z,70.00
2022-10-11T19:28:42.455Z,69.80
2022-10-11T19:31:10.309Z,70.00
2022-10-11T19:33:37.070Z,69.80
2022-10-11T19:36:04.627Z,69.90
2022-10-11T19:38:32.012Z,70.00
2022-10-11T19:41:00.611Z,69.90
2022-10-11T19:43:27.594Z,70.00
2022-10-11T19:46:04.413Z,70.10
2022-10-11T19:48:31.279Z,70.10
2022-10-11T19:51:05.401Z,70.20
2022-10-11T19:53:32.277Z,70.10
2022-10-11T19:56:10.624Z,70.10
2022-10-11T19:58:37.533Z,70.10
2022-10-11T20:01:16.978Z,70.20
2022-10-11T20:03:44.275Z,70.20
2022-10-11T20:06:12.583Z,70.30
2022-10-11T20:08:39.350Z,70.20
2022-10-11T20:11:07.667Z,70.10
2022-10-11T20:13:35.239Z,70.10
2022-10-11T20:16:06.669Z,70.00
2022-10-11T20:18:33.397Z,70.10
2022-10-11T20:21:01.696Z,70.20
2022-10-11T20:23:28.551Z,70.30
2022-10-11T20:26:02.344Z,70.30
2022-10-11T20:28:29.422Z,70.30
2022-10-11T20:30:56.206Z,70.20
2022-10-11T20:33:22.891Z,70.30
2022-10-11T20:36:06.651Z,70.30
2022-10-11T20:38:34.100Z,70.30
2022-10-11T20:41:04.962Z,70.40
2022-10-11T20:43:31.694Z,70.40
2022-10-11T20:46:02.799Z,70.50
2022-10-11T20:48:29.949Z,70.50
2022-10-11T20:50:56.788Z,70.60
2022-10-11T20:53:23.613Z,70.60
2022-10-11T20:55:50.955Z,70.50
2022-10-11T20:58:18.489Z,70.20
2022-10-11T21:00:45.215Z,70.20
2022-10-11T21:03:12.058Z,70.20
2022-10-11T21:05:38.737Z,70.40
2022-10-11T21:08:05.673Z,70.50
2022-10-11T21:10:32.460Z,70.60
2022-10-11T21:12:59.255Z,70.70
2022-10-11T21:15:25.966Z,70.80
2022-10-11T21:17:52.709Z,70.80
2022-10-11T21:20:19.449Z,70.90
2022-10-11T21:22:46.116Z,70.90
2022-10-11T21:25:12.871Z,70.90
2022-10-11T21:27:39.797Z,71.10
2022-10-11T21:30:06.953Z,71.10
2022-10-11T21:32:33.818Z,71.20
2022-10-11T21:35:00.826Z,71.20
2022-10-11T21:37:27.510Z,71.20
2022-10-11T21:39:54.257Z,71.30
2022-10-11T21:42:21.724Z,71.40
2022-10-11T21:44:50.584Z,71.40
2022-10-11T21:47:17.586Z,71.40
2022-10-11T21:49:44.349Z,71.50
2022-10-11T21:52:11.062Z,71.70
2022-10-11T21:54:37.916Z,71.60
2022-10-11T21:57:04.651Z,71.60
2022-10-11T21:59:31.734Z,71.60
2022-10-11T22:02:01.838Z,72.50
2022-10-11T22:04:28.675Z,71.60
2022-10-11T22:06:55.342Z,71.70
2022-10-11T22:09:22.209Z,71.60
2022-10-11T22:11:48.980Z,72.50
2022-10-11T22:14:15.653Z,71.60
2022-10-11T22:16:42.344Z,71.70
2022-10-11T22:19:09.040Z,71.60
2022-10-11T22:21:35.788Z,71.60
2022-10-11T22:24:02.545Z,71.50
2022-10-11T22:26:32.354Z,71.70
2022-10-11T22:28:59.535Z,71.90
2022-10-11T22:31:26.399Z,72.00
2022-10-11T22:33:54.721Z,72.20
2022-10-11T22:36:21.404Z,72.30
2022-10-11T22:38:48.105Z,72.40
2022-10-11T22:41:14.913Z,72.40
2022-10-11T22:43:41.741Z,72.30
2022-10-11T22:46:08.506Z,72.40
2022-10-11T22:48:35.487Z,72.50
2022-10-11T22:51:02.320Z,73.40
2022-10-11T22:53:29.126Z,72.60
2022-10-11T22:55:55.958Z,72.70
2022-10-11T22:58:22.710Z,72.60
2022-10-11T23:00:49.395Z,72.70
2022-10-11T23:03:16.591Z,72.80
2022-10-11T23:05:43.332Z,72.90
2022-10-11T23:08:10.094Z,72.90
2022-10-11T23:10:40.292Z,72.90
2022-10-11T23:13:07.042Z,72.90
2022-10-11T23:15:33.702Z,73.00
2022-10-11T23:18:00.476Z,73.10
2022-10-11T23:20:27.174Z,73.10
2022-10-11T23:22:53.863Z,73.10
2022-10-11T23:25:20.581Z,73.10
2022-10-11T23:27:47.264Z,73.10
2022-10-11T23:30:14.473Z,73.40
2022-10-11T23:32:41.297Z,73.40
2022-10-11T23:35:08.248Z,74.20
2022-10-11T23:37:35.255Z,73.40
2022-10-11T23:40:02.274Z,73.30
2022-10-11T23:42:28.973Z,73.30
2022-10-11T23:44:55.694Z,73.30
2022-10-11T23:47:22.412Z,73.40
2022-10-11T23:49:49.070Z,74.30
2022-10-11T23:52:15.965Z,73.50
2022-10-11T23:54:42.693Z,73.50
2022-10-11T23:57:09.485Z,73.60
2022-10-11T23:59:36.244Z,73.50
